UACC/TSE METAR and TAF weather

Enter ICAO airport designator
Station Type Date Time Source
UACC METAR 2020/09/25 06:30 UTC NOAA

UACC 250630Z 33004MPS 280V360 9999 SCT020CB BKN025 08/03 Q1024 R04/0///70 NOSIG RMK QFE736/0982


Station Type Date Time Source
UACC Decoded METAR 2020/09/25 06:30 UTC NOAA

Astana, Kazakhstan (UACC) 51-12N 071-27E
Sep 25, 2020 - 02:30 AM EDT / 2020.09.25 0630 UTC
Wind: from the NNW (330 degrees) at 9 MPH (8 KT) (direction variable):0
Visibility: greater than 7 mile(s):0
Sky conditions: mostly cloudy
Weather: Cumulonimbus clouds observed
Temperature: 46 F (8 C)
Dew Point: 37 F (3 C)
Relative Humidity: 70%
Pressure (altimeter): 30.24 in. Hg (1024 hPa)
ob: UACC 250630Z 33004MPS 280V360 9999 SCT020CB BKN025 08/03 Q1024 R04/0///70 NOSIG RMK QFE736/0982
cycle: 6

Station Type Date Time Source
UACC TAF 2020/09/25 06:21 UTC NOAA

TAF UACC 250500Z 2506/2606 32006MPS 9999 SCT015 BKN050 TX10/2509Z TN03/2600Z
TEMPO 2506/2515 33007G12MPS SCT015CB
BECMG 2515/2517 35004MPS SCT011 BKN015
BECMG 2600/2602 03005MPS

Example: see airport list